Terminal Aerodrome Forecast
Issued by NWS

Home | Current Version | Previous Version | Text Only | Print | Product List | Glossary On
Versions: 1 2 3 4 5 6 7 8 9 10 11 12 13 14 15 16 17 18 19 20 21 22 23 24 25 26 27
000
FTUS44 KMOB 100500
TAFBFM
TAF
KBFM 100524Z 1006/1106 25003KT P6SM SKC
     FM101700 28006KT P6SM VCTS BKN030CB
      TEMPO 1018/1021 VRB15KT 3SM -TSRA BKN010CB
     FM110000 24004KT P6SM SCT030=

USA.gov is the U.S. government's official web portal to all federal, state and local government web resources and services.